Time;durP1;ratioP1;P1;durP2;ratioP2;P2;SDS_P1;SDS_P2;PMS_P1;PMS_P2;Temp;Humidity;BMP_temperature;BMP_pressure;BME280_temperature;BME280_humidity;BME280_pressure;Samples;Min_cycle;Max_cycle;Signal;HPM_P1;HPM_P2
2023/10/13 00:10:25;;;;;;;6.70;4.53;;;13.50;99.90;;;;;;6141114;23;20408;-91
2023/10/13 00:19:37;;;;;;;4.63;4.23;;;;;;;;;;6125746;23;20459;-89
2023/10/13 00:22:12;;;;;;;4.50;3.90;;;13.50;99.90;;;;;;6168697;23;20472;-89
2023/10/13 00:27:52;;;;;;;5.17;4.17;;;13.50;99.90;;;;;;6161789;23;20451;-92
2023/10/13 00:50:27;;;;;;;6.07;4.83;;;13.50;99.90;;;;;;5990591;23;20417;-90
2023/10/13 00:53:55;;;;;;;;;;;;;;;;;;;;;
2023/10/13 00:57:26;;;;;;;8.43;5.40;;;13.30;99.90;;;;;;5992506;23;20476;-90
2023/10/13 01:03:55;;;;;;;7.60;4.23;;;13.50;99.90;;;;;;5874351;24;20401;-89
2023/10/13 01:06:46;;;;;;;11.07;4.50;;;13.50;99.90;;;;;;5956212;23;20417;-91
2023/10/13 01:09:29;;;;;;;7.63;6.00;;;13.50;99.90;;;;;;6090237;23;20484;-91
2023/10/13 01:15:50;;;;;;;6.17;4.73;;;13.50;99.90;;;;;;6163563;23;20407;-90
2023/10/13 01:18:17;;;;;;;6.50;4.87;;;;;;;;;;6183720;23;20557;-90
2023/10/13 01:21:15;;;;;;;5.00;4.60;;;13.50;99.90;;;;;;6171826;23;20404;-90
2023/10/13 01:24:13;;;;;;;6.73;5.83;;;13.50;99.90;;;;;;6175065;23;20430;-92
2023/10/13 01:26:52;;;;;;;7.13;4.60;;;13.50;99.90;;;;;;6173998;23;20381;-91
2023/10/13 01:29:40;;;;;;;9.80;5.20;;;13.50;99.90;;;;;;6174059;23;20444;-91
2023/10/13 01:32:40;;;;;;;9.50;5.30;;;13.50;99.90;;;;;;6179932;23;20388;-90
2023/10/13 01:35:47;;;;;;;9.53;5.70;;;13.50;99.90;;;;;;6172500;23;20370;-91
2023/10/13 01:38:16;;;;;;;7.10;4.63;;;;;;;;;;6179583;23;20450;-90
2023/10/13 01:44:38;;;;;;;7.13;5.43;;;13.40;99.90;;;;;;6094084;23;20436;-89
2023/10/13 01:47:39;;;;;;;7.90;5.87;;;13.50;99.90;;;;;;6095095;23;20490;-90
2023/10/13 01:50:20;;;;;;;10.47;5.83;;;13.50;99.90;;;;;;6181918;23;20416;-90
2023/10/13 01:53:12;;;;;;;7.63;5.90;;;13.50;99.90;;;;;;6179271;23;20384;-90
2023/10/13 01:55:42;;;;;;;9.50;5.90;;;;;;;;;;6172991;23;20428;-90
2023/10/13 01:58:34;;;;;;;9.70;6.03;;;13.50;99.90;;;;;;6182325;23;20423;-91
2023/10/13 02:04:42;;;;;;;9.60;6.43;;;13.50;99.90;;;;;;6169599;23;20392;-89
2023/10/13 02:07:15;;;;;;;7.80;6.57;;;;;;;;;;6184055;23;20941;-91
2023/10/13 02:09:50;;;;;;;9.40;6.63;;;13.40;99.90;;;;;;6178865;23;20436;-91
2023/10/13 02:12:27;;;;;;;15.00;7.43;;;;;;;;;;6181705;23;20384;-91
2023/10/13 02:24:04;;;;;;;11.93;8.10;;;13.50;99.90;;;;;;6237027;23;20385;-91
2023/10/13 02:37:27;;;;;;;9.77;7.00;;;13.50;99.90;;;;;;6016860;23;20475;-91
2023/10/13 02:40:24;;;;;;;11.40;7.70;;;13.50;99.90;;;;;;6033820;23;20428;-91
2023/10/13 03:07:22;;;;;;;;;;;;;;;;;;;;;
2023/10/13 03:10:28;;;;;;;17.53;10.57;;;;;;;;;;6207117;23;20417;-90
2023/10/13 03:30:41;;;;;;;;;;;;;;;;;;;;;
2023/10/13 03:52:59;;;;;;;17.80;12.10;;;13.70;99.90;;;;;;6060271;23;20391;-89
2023/10/13 03:56:16;;;;;;;18.90;11.73;;;13.70;99.90;;;;;;6048906;23;20408;-90
2023/10/13 04:16:34;;;;;;;19.67;12.50;;;13.80;99.90;;;;;;6077076;23;20474;-91
2023/10/13 04:19:22;;;;;;;23.47;13.63;;;13.80;99.90;;;;;;6078474;23;20430;-90
2023/10/13 04:23:16;;;;;;;15.80;11.83;;;13.80;99.90;;;;;;6192929;23;20442;-90
2023/10/13 04:25:35;;;;;;;21.20;14.43;;;13.80;99.90;;;;;;6196749;23;20454;-90
2023/10/13 04:28:34;;;;;;;22.93;13.83;;;;;;;;;;6202262;23;21020;-89
2023/10/13 04:34:38;;;;;;;29.83;17.00;;;13.80;99.90;;;;;;6094021;23;20383;-90
2023/10/13 04:40:35;;;;;;;21.70;15.20;;;13.90;99.90;;;;;;6199045;23;20406;-91
2023/10/13 06:33:04;;;;;;;18.27;14.90;;;14.70;99.90;;;;;;6173848;23;20429;-90
2023/10/13 06:38:24;;;;;;;23.33;14.90;;;14.80;99.90;;;;;;6150496;23;20931;-90
2023/10/13 06:40:58;;;;;;;17.87;14.43;;;;;;;;;;6149318;23;20420;-90
2023/10/13 06:43:32;;;;;;;18.50;14.10;;;14.80;99.90;;;;;;6145215;23;20405;-90
2023/10/13 06:46:23;;;;;;;18.70;14.40;;;14.80;99.90;;;;;;6146123;23;20385;-90
2023/10/13 06:49:18;;;;;;;17.07;12.97;;;14.90;99.90;;;;;;6128524;23;20442;-92
2023/10/13 07:06:18;;;;;;;14.00;11.80;;;15.30;99.90;;;;;;6176949;23;20457;-89
2023/10/13 07:11:38;;;;;;;17.53;13.60;;;;;;;;;;6167915;23;20395;-86
2023/10/13 07:14:10;;;;;;;15.00;12.27;;;;;;;;;;6193462;23;20395;-86
2023/10/13 07:16:46;;;;;;;15.20;12.73;;;15.40;99.90;;;;;;6196585;23;20411;-85
2023/10/13 07:19:16;;;;;;;13.60;11.17;;;15.60;99.90;;;;;;6193996;23;20426;-87
2023/10/13 07:21:46;;;;;;;13.40;11.80;;;15.60;99.90;;;;;;6193171;23;20509;-87
2023/10/13 07:24:13;;;;;;;18.00;10.53;;;15.90;99.90;;;;;;6192606;23;20417;-87
2023/10/13 07:26:45;;;;;;;13.13;11.83;;;15.70;99.90;;;;;;6201043;23;20414;-87
2023/10/13 07:29:13;;;;;;;14.33;11.33;;;15.70;99.90;;;;;;6212310;23;20455;-87
2023/10/13 07:31:44;;;;;;;13.60;11.63;;;15.60;99.90;;;;;;6211920;23;20403;-86
2023/10/13 07:34:24;;;;;;;15.80;9.83;;;15.90;99.90;;;;;;6205515;23;20463;-87
2023/10/13 07:36:54;;;;;;;11.73;9.93;;;15.90;99.90;;;;;;6198241;23;20449;-86
2023/10/13 07:39:21;;;;;;;11.87;10.63;;;15.90;99.90;;;;;;6195190;23;20415;-86
2023/10/13 07:41:54;;;;;;;10.30;9.20;;;15.90;99.90;;;;;;6204864;23;20921;-88
2023/10/13 07:44:24;;;;;;;13.57;9.23;;;16.00;99.90;;;;;;6205592;23;20459;-87
2023/10/13 07:46:58;;;;;;;10.80;9.70;;;16.10;99.90;;;;;;6213718;23;20372;-88
2023/10/13 07:49:30;;;;;;;13.70;8.70;;;16.10;99.90;;;;;;6210894;23;20466;-88
2023/10/13 07:52:14;;;;;;;11.23;9.10;;;16.10;99.90;;;;;;6194730;23;20395;-87
2023/10/13 07:54:47;;;;;;;16.23;11.40;;;16.20;99.90;;;;;;6193899;23;20387;-88
2023/10/13 07:57:14;;;;;;;10.47;8.70;;;16.20;99.90;;;;;;6194179;23;20391;-86
2023/10/13 07:59:49;;;;;;;12.10;8.30;;;16.20;99.90;;;;;;6194223;23;20427;-88
2023/10/13 08:02:47;;;;;;;9.77;8.70;;;16.80;99.90;;;;;;6194781;23;20390;-86
2023/10/13 08:05:04;;;;;;;13.73;10.17;;;16.30;99.90;;;;;;6193710;23;20411;-86
2023/10/13 08:07:39;;;;;;;9.80;8.33;;;16.40;99.90;;;;;;6202299;23;20410;-87
2023/10/13 08:10:10;;;;;;;14.50;9.77;;;16.40;99.90;;;;;;6201067;23;20431;-86
2023/10/13 08:12:37;;;;;;;11.60;8.23;;;16.40;99.90;;;;;;6196029;23;20387;-88
2023/10/13 08:15:21;;;;;;;12.57;8.63;;;;;;;;;;6200196;23;20517;-90
2023/10/13 08:17:52;;;;;;;9.40;8.43;;;;;;;;;;6200239;23;20441;-87
2023/10/13 08:20:21;;;;;;;12.93;9.90;;;16.60;99.90;;;;;;6195377;23;20475;-86
2023/10/13 08:23:03;;;;;;;15.93;9.90;;;16.60;99.90;;;;;;6194398;23;20433;-87
2023/10/13 08:31:21;;;;;;;8.43;7.63;;;16.80;99.90;;;;;;6197574;23;20912;-88
2023/10/13 08:33:48;;;;;;;8.40;7.20;;;16.80;99.90;;;;;;6205404;23;20456;-87
2023/10/13 08:36:29;;;;;;;11.70;8.37;;;17.00;99.90;;;;;;6198157;23;20434;-85
2023/10/13 08:38:58;;;;;;;10.00;8.60;;;17.10;99.90;;;;;;6194269;23;20419;-88
2023/10/13 08:41:31;;;;;;;9.87;8.10;;;17.20;99.90;;;;;;6196626;23;20407;-86
2023/10/13 08:44:07;;;;;;;9.73;7.50;;;17.10;99.90;;;;;;6198074;23;20380;-86
2023/10/13 08:49:19;;;;;;;11.30;8.00;;;17.20;99.90;;;;;;6182840;23;20465;-86
2023/10/13 08:51:48;;;;;;;9.93;7.80;;;17.20;99.90;;;;;;6213699;23;20473;-87
2023/10/13 08:54:33;;;;;;;8.63;7.83;;;17.20;99.90;;;;;;6202897;23;20404;-87
2023/10/13 08:57:06;;;;;;;10.63;8.00;;;17.20;99.90;;;;;;6196996;23;20397;-86
2023/10/13 08:59:49;;;;;;;8.43;7.70;;;17.20;99.90;;;;;;6203428;23;20424;-88
2023/10/13 09:02:19;;;;;;;11.37;9.17;;;17.30;99.90;;;;;;6194821;23;20391;-87
2023/10/13 09:04:47;;;;;;;10.17;7.40;;;17.30;99.90;;;;;;6194388;23;20423;-87
2023/10/13 09:07:16;;;;;;;9.70;8.70;;;17.30;99.90;;;;;;6192925;23;20406;-87
2023/10/13 09:10:11;;;;;;;10.40;7.73;;;17.30;99.90;;;;;;6192765;23;20847;-86
2023/10/13 09:12:39;;;;;;;10.03;8.20;;;17.30;99.90;;;;;;6193967;23;20468;-88
2023/10/13 09:15:18;;;;;;;7.50;6.77;;;17.30;99.90;;;;;;6211646;23;20442;-86
2023/10/13 09:17:51;;;;;;;10.33;7.57;;;18.10;99.90;;;;;;6206993;23;20450;-87
2023/10/13 09:20:42;;;;;;;8.20;7.40;;;17.40;99.90;;;;;;6199515;23;20404;-87
2023/10/13 09:23:12;;;;;;;9.30;7.30;;;17.60;99.90;;;;;;6193422;23;20423;-87
2023/10/13 09:25:53;;;;;;;8.73;7.93;;;17.50;99.90;;;;;;6195263;23;20408;-86
2023/10/13 09:28:22;;;;;;;8.10;7.30;;;17.60;99.90;;;;;;6195352;23;20435;-86
2023/10/13 09:30:52;;;;;;;8.33;7.53;;;17.60;99.90;;;;;;6211818;23;20436;-86
2023/10/13 09:33:28;;;;;;;10.10;8.93;;;17.60;99.90;;;;;;6194585;23;20424;-86
2023/10/13 09:35:54;;;;;;;9.47;8.37;;;17.60;99.90;;;;;;6193535;23;20398;-87
2023/10/13 09:38:21;;;;;;;11.57;8.33;;;17.60;99.90;;;;;;6193121;23;20512;-86
2023/10/13 09:40:49;;;;;;;10.30;8.23;;;17.50;99.90;;;;;;6205929;23;20450;-85
2023/10/13 09:43:19;;;;;;;9.53;8.30;;;17.50;99.90;;;;;;6194406;23;20485;-86
2023/10/13 09:46:01;;;;;;;10.60;7.57;;;17.40;99.90;;;;;;6194743;23;20785;-86
2023/10/13 09:48:33;;;;;;;11.60;7.97;;;17.40;99.90;;;;;;6213963;23;20411;-86
2023/10/13 09:51:02;;;;;;;9.93;8.00;;;17.40;99.90;;;;;;6211453;23;20442;-85
2023/10/13 09:53:31;;;;;;;10.40;8.53;;;17.30;99.90;;;;;;6207106;23;20392;-85
2023/10/13 09:56:12;;;;;;;7.80;7.00;;;17.50;99.90;;;;;;6202000;23;20402;-86
2023/10/13 09:58:50;;;;;;;9.20;7.77;;;17.50;99.90;;;;;;6196114;23;20764;-86
2023/10/13 10:01:31;;;;;;;10.37;8.53;;;17.40;99.90;;;;;;6192515;23;20402;-86
2023/10/13 10:04:08;;;;;;;10.53;7.80;;;17.40;99.90;;;;;;6192668;23;20380;-87
2023/10/13 10:06:39;;;;;;;8.70;7.47;;;17.40;99.90;;;;;;6191965;23;20918;-87
2023/10/13 10:09:11;;;;;;;12.47;7.37;;;17.30;99.90;;;;;;6200398;23;20420;-88
2023/10/13 10:12:07;;;;;;;9.13;8.20;;;17.40;99.90;;;;;;6208914;23;20419;-87
2023/10/13 10:14:54;;;;;;;8.10;7.30;;;17.40;99.90;;;;;;6202531;23;20417;-87
2023/10/13 10:17:22;;;;;;;9.10;7.30;;;17.40;99.90;;;;;;6199785;23;20488;-87
2023/10/13 10:19:53;;;;;;;7.80;7.00;;;17.50;99.90;;;;;;6192871;23;20418;-87
2023/10/13 10:22:30;;;;;;;10.90;9.13;;;17.50;99.90;;;;;;6192109;23;20393;-87
2023/10/13 10:24:59;;;;;;;13.73;8.30;;;17.50;99.90;;;;;;6194040;23;20782;-87
2023/10/13 10:27:30;;;;;;;8.03;7.23;;;17.50;99.90;;;;;;6193096;23;20403;-86
2023/10/13 10:29:57;;;;;;;10.13;7.10;;;17.50;99.90;;;;;;6196537;23;20966;-86
2023/10/13 10:32:36;;;;;;;7.50;6.80;;;17.50;99.90;;;;;;6198168;23;20417;-86
2023/10/13 10:35:09;;;;;;;9.63;8.23;;;17.50;99.90;;;;;;6206013;23;20419;-87
2023/10/13 10:37:37;;;;;;;10.33;7.93;;;17.30;99.90;;;;;;6204699;23;20397;-85
2023/10/13 10:40:19;;;;;;;9.53;7.67;;;17.50;99.90;;;;;;6212067;23;20409;-87
2023/10/13 10:42:53;;;;;;;9.77;8.60;;;17.50;99.90;;;;;;6207762;23;20393;-87
2023/10/13 10:45:25;;;;;;;9.73;8.20;;;17.50;99.90;;;;;;6198333;23;20717;-86
2023/10/13 10:47:58;;;;;;;8.40;7.20;;;17.50;99.90;;;;;;6196732;23;20443;-87
2023/10/13 10:50:34;;;;;;;8.13;7.20;;;17.50;99.90;;;;;;6196732;23;20807;-87
2023/10/13 10:53:02;;;;;;;8.87;7.60;;;17.50;99.90;;;;;;6199151;23;20537;-87
2023/10/13 10:55:30;;;;;;;9.67;8.57;;;17.50;99.90;;;;;;6198091;23;20939;-87
2023/10/13 10:58:05;;;;;;;9.93;7.77;;;17.40;99.90;;;;;;6195543;23;20496;-87
2023/10/13 11:00:41;;;;;;;11.00;8.03;;;17.40;99.90;;;;;;6196113;23;20388;-87
2023/10/13 11:03:11;;;;;;;8.50;7.63;;;17.40;99.90;;;;;;6197983;23;20401;-87
2023/10/13 11:05:50;;;;;;;10.03;8.27;;;17.40;99.90;;;;;;6198130;23;20455;-87
2023/10/13 11:08:31;;;;;;;9.87;8.00;;;17.50;99.90;;;;;;6206821;23;20539;-87
2023/10/13 11:11:00;;;;;;;9.53;7.97;;;17.60;99.90;;;;;;6211997;23;20437;-87
2023/10/13 11:13:42;;;;;;;10.13;9.13;;;17.40;99.90;;;;;;6207496;23;20878;-86
2023/10/13 11:16:10;;;;;;;11.87;8.50;;;17.40;99.90;;;;;;6193651;23;20405;-87
2023/10/13 11:18:40;;;;;;;14.03;9.43;;;17.60;99.90;;;;;;6193280;23;20427;-86
2023/10/13 11:21:07;;;;;;;9.77;7.97;;;17.50;99.90;;;;;;6195733;23;20407;-86
2023/10/13 11:23:36;;;;;;;9.33;7.73;;;17.50;99.90;;;;;;6195007;23;20475;-87
2023/10/13 11:26:04;;;;;;;11.80;8.50;;;17.70;99.90;;;;;;6198744;23;20495;-86
2023/10/13 11:28:34;;;;;;;9.70;8.00;;;17.60;99.90;;;;;;6196382;23;20428;-86
2023/10/13 11:31:10;;;;;;;12.60;8.70;;;17.60;99.90;;;;;;6199973;23;20421;-85
2023/10/13 11:33:41;;;;;;;11.47;8.50;;;17.70;99.90;;;;;;6210907;23;20420;-86
2023/10/13 11:36:16;;;;;;;8.60;7.63;;;17.70;99.90;;;;;;6209809;23;20460;-86
2023/10/13 11:38:49;;;;;;;12.50;9.20;;;17.70;99.90;;;;;;6208773;23;20480;-87
2023/10/13 11:41:15;;;;;;;10.40;8.47;;;17.80;99.90;;;;;;6204301;23;20390;-87
2023/10/13 11:44:04;;;;;;;9.10;8.00;;;17.70;99.90;;;;;;6193499;23;20506;-87
2023/10/13 11:49:19;;;;;;;11.47;9.53;;;17.70;99.90;;;;;;6196795;23;20821;-87
2023/10/13 11:51:47;;;;;;;11.43;9.53;;;17.70;99.90;;;;;;6194809;23;20424;-87
2023/10/13 11:54:15;;;;;;;14.77;11.40;;;17.80;99.90;;;;;;6207264;23;20404;-86
2023/10/13 11:56:42;;;;;;;10.80;9.13;;;17.80;99.90;;;;;;6211430;23;20420;-85
2023/10/13 11:59:16;;;;;;;10.20;9.20;;;17.80;99.90;;;;;;6197377;23;20451;-87
2023/10/13 12:04:34;;;;;;;18.90;8.20;;;18.10;99.90;;;;;;6194868;23;20376;-86
2023/10/13 12:07:14;;;;;;;8.83;7.90;;;18.00;99.90;;;;;;6204544;23;20404;-85
2023/10/13 12:09:52;;;;;;;11.57;8.20;;;18.10;99.90;;;;;;6203653;23;20455;-86
2023/10/13 12:12:19;;;;;;;14.67;10.10;;;18.20;99.90;;;;;;6199266;23;20389;-87
2023/10/13 12:14:54;;;;;;;9.67;8.20;;;18.30;99.90;;;;;;6194379;23;20432;-86
2023/10/13 12:17:24;;;;;;;12.93;7.87;;;18.30;99.90;;;;;;6193129;23;20394;-87
2023/10/13 12:19:52;;;;;;;10.10;7.40;;;18.40;99.90;;;;;;6193662;23;20464;-87
2023/10/13 12:22:26;;;;;;;14.30;8.63;;;18.60;99.90;;;;;;6206560;23;20392;-87
2023/10/13 12:24:54;;;;;;;13.47;9.47;;;18.50;99.90;;;;;;6212285;23;20394;-86
2023/10/13 12:27:23;;;;;;;8.63;7.63;;;18.50;99.90;;;;;;6199354;23;20481;-86
2023/10/13 12:29:52;;;;;;;9.43;7.10;;;18.70;99.90;;;;;;6196141;23;20445;-85
2023/10/13 12:32:22;;;;;;;19.30;9.20;;;18.60;99.90;;;;;;6197523;23;20416;-86
2023/10/13 12:35:00;;;;;;;11.67;7.73;;;18.60;99.90;;;;;;6194604;23;20471;-87
2023/10/13 12:37:50;;;;;;;11.47;6.63;;;18.70;99.90;;;;;;6195638;23;20394;-86
2023/10/13 12:51:23;;;;;;;15.63;9.70;;;18.90;99.90;;;;;;6203487;23;20473;-87
2023/10/13 12:53:52;;;;;;;8.70;7.73;;;19.00;99.90;;;;;;6199688;23;20378;-87
2023/10/13 12:56:25;;;;;;;12.40;7.80;;;19.10;99.90;;;;;;6195872;23;20439;-86
2023/10/13 12:58:54;;;;;;;16.90;7.20;;;19.10;99.90;;;;;;6193387;23;20804;-88
2023/10/13 13:01:24;;;;;;;14.23;7.53;;;19.20;99.90;;;;;;6192708;23;20473;-87
2023/10/13 13:03:55;;;;;;;12.33;7.63;;;19.20;99.90;;;;;;6200005;23;20848;-87
2023/10/13 13:06:24;;;;;;;10.83;8.80;;;19.30;99.90;;;;;;6194914;23;20424;-87
2023/10/13 13:08:51;;;;;;;12.47;8.20;;;19.30;99.90;;;;;;6194173;23;20430;-87
2023/10/13 13:11:18;;;;;;;18.23;8.00;;;19.30;99.90;;;;;;6192948;23;20475;-89
2023/10/13 13:13:46;;;;;;;12.33;7.93;;;19.30;99.90;;;;;;6194176;23;20750;-88
2023/10/13 13:16:13;;;;;;;9.33;7.30;;;19.40;99.90;;;;;;6193945;23;20426;-89
2023/10/13 13:18:43;;;;;;;11.73;8.83;;;19.60;99.90;;;;;;6194277;23;20427;-90
2023/10/13 13:21:12;;;;;;;10.73;7.57;;;19.40;99.90;;;;;;6197211;23;20399;-89
2023/10/13 13:23:39;;;;;;;10.00;8.07;;;19.50;99.90;;;;;;6194136;23;20403;-87
2023/10/13 13:26:15;;;;;;;12.03;7.70;;;19.60;99.90;;;;;;6194752;23;20408;-89
2023/10/13 13:28:42;;;;;;;10.23;7.53;;;19.70;99.90;;;;;;6207619;23;20435;-89
2023/10/13 13:31:12;;;;;;;13.40;7.60;;;19.70;99.90;;;;;;6194804;23;20493;-88
2023/10/13 13:33:43;;;;;;;11.53;7.43;;;19.80;99.90;;;;;;6200104;23;20491;-87
2023/10/13 13:36:13;;;;;;;13.63;8.63;;;19.80;99.90;;;;;;6211524;23;20866;-87
2023/10/13 13:38:40;;;;;;;14.47;8.33;;;19.80;99.90;;;;;;6198332;23;20442;-88
2023/10/13 13:41:15;;;;;;;13.10;7.93;;;19.90;99.90;;;;;;6197378;23;20737;-87
2023/10/13 13:43:54;;;;;;;11.03;8.43;;;19.80;99.90;;;;;;6198463;23;20443;-87
2023/10/13 13:46:24;;;;;;;9.37;7.47;;;20.00;99.90;;;;;;6200266;23;20398;-86
2023/10/13 13:48:57;;;;;;;9.60;7.70;;;20.00;99.90;;;;;;6198879;23;20427;-87
2023/10/13 13:51:30;;;;;;;10.13;7.87;;;20.00;99.90;;;;;;6196999;23;20541;-88
2023/10/13 13:54:16;;;;;;;12.67;7.97;;;20.00;99.90;;;;;;6198695;23;20392;-91
2023/10/13 13:56:44;;;;;;;10.73;6.87;;;21.30;99.90;;;;;;6194958;23;20495;-88
2023/10/13 13:59:15;;;;;;;10.50;7.17;;;20.10;99.90;;;;;;6193683;23;20454;-88
2023/10/13 14:01:44;;;;;;;16.13;8.77;;;20.10;99.90;;;;;;6194024;23;20397;-88
2023/10/13 14:04:11;;;;;;;21.47;12.07;;;20.20;99.90;;;;;;6192751;23;20407;-89
2023/10/13 14:06:39;;;;;;;9.53;8.37;;;20.20;99.90;;;;;;6204126;23;20778;-88
2023/10/13 14:35:47;;;;;;;16.47;7.63;;;20.10;99.90;;;;;;6179409;23;20419;-93
2023/10/13 14:50:19;;;;;;;12.67;8.83;;;20.20;99.90;;;;;;6224733;22;20947;-93
2023/10/13 14:59:38;;;;;;;13.93;7.20;;;20.10;99.90;;;;;;6210051;23;20487;-92
2023/10/13 15:02:43;;;;;;;9.03;7.07;;;20.10;99.90;;;;;;6208725;23;20447;-92
2023/10/13 15:06:22;;;;;;;10.03;7.50;;;20.10;99.90;;;;;;6207680;23;20438;-93
2023/10/13 15:48:30;;;;;;;16.63;10.27;;;19.60;99.90;;;;;;6188931;23;20466;-93
2023/10/13 15:51:23;;;;;;;10.30;8.30;;;19.70;99.90;;;;;;6213031;23;20383;-93
2023/10/13 15:56:39;;;;;;;14.03;9.50;;;;;;;;;;6161602;23;20521;-93
2023/10/13 16:22:32;;;;;;;14.47;9.63;;;19.40;99.90;;;;;;6117228;23;20477;-93
2023/10/13 16:29:14;;;;;;;14.67;9.97;;;19.40;99.90;;;;;;5970455;24;20411;-93
2023/10/13 16:35:59;;;;;;;10.23;8.70;;;19.40;99.90;;;;;;6078566;23;20402;-92
2023/10/13 17:11:58;;;;;;;13.50;8.97;;;19.20;99.90;;;;;;6197632;23;20471;-93
2023/10/13 17:14:47;;;;;;;14.40;9.73;;;19.20;99.90;;;;;;6193322;23;20423;-91
2023/10/13 17:17:50;;;;;;;13.60;9.43;;;19.20;99.90;;;;;;6205185;23;20472;-92
2023/10/13 17:23:42;;;;;;;19.63;12.00;;;18.90;99.90;;;;;;6182344;23;20396;-93
2023/10/13 17:53:46;;;;;;;14.87;8.30;;;19.50;99.90;;;;;;5132670;27;20500;-91
2023/10/13 17:59:00;;;;;;;11.37;8.83;;;;;;;;;;5124182;27;20481;-90
2023/10/13 18:01:49;;;;;;;16.03;10.50;;;19.60;99.90;;;;;;5115538;28;20464;-90
2023/10/13 18:04:25;;;;;;;16.43;9.17;;;19.40;99.90;;;;;;5108141;28;20444;-92
2023/10/13 18:07:05;;;;;;;12.73;9.57;;;19.40;99.90;;;;;;5104399;28;20886;-92
2023/10/13 18:09:49;;;;;;;12.33;9.57;;;19.40;99.90;;;;;;5104810;28;20980;-93
2023/10/13 18:12:56;;;;;;;14.87;9.77;;;19.30;1.00;;;;;;5105801;28;20438;-93
2023/10/13 18:15:47;;;;;;;13.40;9.70;;;19.40;99.90;;;;;;5114585;28;20456;-93
2023/10/13 18:21:20;;;;;;;14.37;10.73;;;19.40;99.90;;;;;;5094995;28;20475;-92
2023/10/13 18:24:35;;;;;;;12.03;9.43;;;19.50;86.20;;;;;;5104571;28;20455;-93
2023/10/13 18:30:28;;;;;;;17.07;11.77;;;19.50;53.70;;;;;;5072906;28;20445;-92
2023/10/13 18:39:47;;;;;;;18.27;11.33;;;;;;;;;;5549571;23;20507;-91
2023/10/13 18:53:25;;;;;;;10.10;7.40;;;19.60;99.90;;;;;;5095699;23;20493;-92
2023/10/13 19:32:52;;;;;;;11.80;8.10;;;19.50;99.90;;;;;;4889570;29;20428;-92
2023/10/13 19:35:52;;;;;;;12.23;8.20;;;19.70;1.00;;;;;;4979692;28;20486;-92
2023/10/13 20:31:59;;;;;;;11.07;8.80;;;19.40;99.90;;;;;;3295544;23;20483;-90
2023/10/13 20:42:15;;;;;;;16.60;11.40;;;19.50;1.00;;;;;;4958687;28;20461;-91
2023/10/13 22:26:56;;;;;;;8.07;7.27;;;19.20;1.00;;;;;;5221582;23;20491;-94
2023/10/13 22:42:46;;;;;;;13.07;8.73;;;19.20;99.90;;;;;;4245343;26;20515;-92
2023/10/13 22:45:33;;;;;;;13.13;8.70;;;19.10;1.00;;;;;;5002476;28;20444;-89
2023/10/13 23:02:58;;;;;;;8.50;6.60;;;19.20;99.90;;;;;;4925207;29;20480;-91
2023/10/13 23:08:20;;;;;;;7.87;5.97;;;;;;;;;;5056580;23;20507;-86
2023/10/13 23:10:48;;;;;;;6.50;5.90;;;;;;;;;;4985010;28;20441;-86
2023/10/13 23:13:18;;;;;;;7.20;5.60;;;19.20;1.00;;;;;;4984733;28;20441;-86
2023/10/13 23:15:48;;;;;;;9.83;5.57;;;;;;;;;;4984501;28;20462;-86
2023/10/13 23:18:18;;;;;;;8.47;5.80;;;;;;;;;;4984737;28;20975;-86
2023/10/13 23:20:50;;;;;;;8.63;6.97;;;;;;;;;;4984468;28;20484;-86
2023/10/13 23:23:18;;;;;;;13.67;7.27;;;;;;;;;;4989596;28;20492;-85
2023/10/13 23:25:45;;;;;;;14.17;8.20;;;19.20;99.90;;;;;;4989763;28;20875;-85
2023/10/13 23:28:13;;;;;;;11.90;7.10;;;19.20;99.90;;;;;;4990752;28;20477;-87
2023/10/13 23:30:44;;;;;;;11.40;8.10;;;19.20;99.90;;;;;;4988107;28;20480;-87
2023/10/13 23:33:12;;;;;;;8.73;6.00;;;19.30;1.00;;;;;;4994751;28;20469;-87
2023/10/13 23:35:42;;;;;;;6.27;5.67;;;19.20;99.90;;;;;;4999725;28;20440;-86
2023/10/13 23:38:18;;;;;;;8.00;5.70;;;19.20;1.00;;;;;;4996377;28;20483;-86
2023/10/13 23:40:45;;;;;;;9.07;5.70;;;19.30;1.00;;;;;;4998135;28;20472;-86
2023/10/13 23:43:20;;;;;;;8.50;5.60;;;;;;;;;;4997018;28;20470;-87
2023/10/13 23:45:48;;;;;;;6.63;5.50;;;19.20;1.00;;;;;;4992474;28;20445;-87
2023/10/13 23:48:16;;;;;;;7.57;5.97;;;19.20;1.00;;;;;;4987828;28;20533;-87
2023/10/13 23:50:56;;;;;;;8.80;6.63;;;19.10;99.90;;;;;;4985326;28;20477;-88
2023/10/13 23:53:29;;;;;;;11.63;7.53;;;19.00;1.00;;;;;;4985955;28;20437;-87
2023/10/13 23:56:00;;;;;;;14.97;8.10;;;18.50;1.00;;;;;;4985643;28;20438;-87
2023/10/13 23:58:28;;;;;;;11.50;7.47;;;;;;;;;;4985915;28;20473;-87
